Time;durP1;ratioP1;P1;durP2;ratioP2;P2;SDS_P1;SDS_P2;PMS_P1;PMS_P2;Temp;Humidity;BMP_temperature;BMP_pressure;BME280_temperature;BME280_humidity;BME280_pressure;Samples;Min_cycle;Max_cycle;Signal;HPM_P1;HPM_P2
2021/09/26 00:00:12;;;;;;;13.15;2.97;;;;;;;19.87;72.36;100704.53;5107074;28;20090;-63
2021/09/26 00:02:40;;;;;;;7.78;3.00;;;;;;;19.92;72.43;100723.31;5081630;28;20048;-59
2021/09/26 00:05:09;;;;;;;9.35;3.70;;;;;;;19.97;72.68;100719.50;5104392;28;20086;-60
2021/09/26 00:07:36;;;;;;;8.55;2.95;;;;;;;19.89;72.55;100712.66;5110152;28;20126;-59
2021/09/26 00:10:05;;;;;;;7.68;2.65;;;;;;;19.84;72.86;100715.69;5108462;28;20118;-59
2021/09/26 00:12:33;;;;;;;7.65;3.30;;;;;;;19.87;72.62;100727.19;5096388;28;20119;-59
2021/09/26 00:15:00;;;;;;;10.73;3.22;;;;;;;19.85;72.94;100706.84;5103758;28;20071;-63
2021/09/26 00:17:27;;;;;;;8.60;4.43;;;;;;;19.89;72.71;100724.00;5107643;28;20086;-63
2021/09/26 00:19:54;;;;;;;12.80;4.00;;;;;;;19.79;72.87;100707.38;5109855;27;20107;-63
2021/09/26 00:22:21;;;;;;;10.10;2.92;;;;;;;19.81;72.53;100710.72;5102033;27;20079;-63
2021/09/26 00:24:47;;;;;;;10.30;3.50;;;;;;;19.77;72.87;100709.72;5099266;28;20078;-64
2021/09/26 00:27:14;;;;;;;8.10;2.60;;;;;;;19.81;72.69;100707.88;5111224;28;20123;-62
2021/09/26 00:29:42;;;;;;;13.73;3.38;;;;;;;19.93;72.63;100727.84;5105491;28;20102;-61
2021/09/26 00:32:10;;;;;;;8.70;4.03;;;;;;;19.89;72.63;100718.34;5106744;28;20126;-61
2021/09/26 00:34:37;;;;;;;8.48;4.18;;;;;;;19.98;72.59;100738.97;5113240;28;20126;-63
2021/09/26 00:37:04;;;;;;;10.70;3.33;;;;;;;19.75;72.48;100695.06;5100380;28;20093;-62
2021/09/26 00:39:31;;;;;;;7.55;3.67;;;;;;;19.89;72.68;100719.16;5089207;28;20044;-61
2021/09/26 00:41:58;;;;;;;7.75;2.80;;;;;;;19.90;72.90;100725.69;5099116;27;20547;-62
2021/09/26 00:44:26;;;;;;;8.82;2.80;;;;;;;19.89;72.79;100726.84;5104721;28;20075;-60
2021/09/26 00:46:53;;;;;;;10.43;3.33;;;;;;;19.84;72.76;100724.22;5111267;28;20135;-58
2021/09/26 00:49:20;;;;;;;10.50;3.15;;;;;;;19.91;72.65;100733.00;5100520;28;20078;-59
2021/09/26 00:51:49;;;;;;;7.90;3.38;;;;;;;19.86;72.66;100731.19;5103390;28;20050;-59
2021/09/26 00:54:16;;;;;;;4.68;2.67;;;;;;;19.82;72.49;100718.03;5110294;28;20126;-59
2021/09/26 00:56:47;;;;;;;3.95;2.22;;;;;;;19.71;72.80;100705.41;5111495;28;20562;-58
2021/09/26 00:59:19;;;;;;;8.70;3.60;;;;;;;19.74;72.92;100730.25;5102209;27;20039;-58
2021/09/26 01:01:48;;;;;;;11.98;4.05;;;;;;;19.61;73.05;100709.41;5110610;28;20160;-59
2021/09/26 01:04:17;;;;;;;7.57;3.38;;;;;;;19.71;72.92;100728.91;5079107;28;20046;-59
2021/09/26 01:07:08;;;;;;;5.57;3.10;;;;;;;19.69;73.11;100741.75;5097354;28;20551;-59
2021/09/26 01:09:50;;;;;;;8.70;3.90;;;;;;;19.66;73.24;100740.44;5098804;28;20400;-59
2021/09/26 01:12:36;;;;;;;9.85;3.97;;;;;;;19.64;73.31;100728.59;5097209;28;20127;-59
2021/09/26 01:15:25;;;;;;;7.60;3.30;;;;;;;19.68;72.89;100723.09;5100847;27;20035;-59
2021/09/26 01:18:11;;;;;;;5.43;3.67;;;;;;;19.67;73.07;100744.94;5102743;28;20058;-59
2021/09/26 01:21:02;;;;;;;8.13;3.47;;;;;;;19.56;73.57;100733.09;5107051;28;20498;-59
2021/09/26 01:24:06;;;;;;;5.38;3.72;;;;;;;19.58;73.44;100736.41;5094658;28;20071;-60
2021/09/26 01:26:44;;;;;;;8.70;3.65;;;;;;;19.58;73.27;100727.91;5099491;28;20079;-61
2021/09/26 01:29:29;;;;;;;17.55;4.88;;;;;;;19.62;73.14;100740.25;5108779;28;20075;-62
2021/09/26 01:32:00;;;;;;;13.60;4.20;;;;;;;19.60;73.32;100734.06;5097185;28;20054;-61
2021/09/26 01:34:43;;;;;;;12.05;4.78;;;;;;;19.57;73.03;100728.25;5097053;28;20110;-61
2021/09/26 01:37:18;;;;;;;14.45;4.45;;;;;;;19.56;72.95;100733.09;5096067;28;20488;-60
2021/09/26 01:39:58;;;;;;;12.77;3.97;;;;;;;19.55;72.97;100730.56;5095812;28;20127;-61
2021/09/26 01:42:45;;;;;;;10.60;4.15;;;;;;;19.53;73.08;100738.59;5093867;28;20094;-61
2021/09/26 01:45:19;;;;;;;9.98;4.35;;;;;;;18.93;73.00;100635.59;5104787;28;20543;-62
2021/09/26 01:47:53;;;;;;;8.60;4.00;;;;;;;19.48;73.34;100719.75;5108123;28;20531;-61
2021/09/26 01:50:23;;;;;;;9.13;4.28;;;;;;;19.47;73.43;100722.94;5112747;28;20083;-62
2021/09/26 01:52:52;;;;;;;5.00;3.40;;;;;;;19.42;73.56;100709.81;5099279;28;20114;-62
2021/09/26 01:55:24;;;;;;;7.93;3.95;;;;;;;19.42;73.39;100716.31;5092540;28;20124;-61
2021/09/26 01:57:54;;;;;;;6.15;3.33;;;;;;;19.41;73.64;100722.28;5102928;28;20101;-62
2021/09/26 02:00:21;;;;;;;18.17;4.97;;;;;;;19.35;73.67;100718.81;5099042;28;20139;-59
2021/09/26 02:02:49;;;;;;;10.07;4.05;;;;;;;19.29;73.59;100705.16;5093082;28;20486;-60
2021/09/26 02:05:18;;;;;;;10.48;3.55;;;;;;;19.39;73.61;100716.13;5091438;28;20044;-59
2021/09/26 02:07:47;;;;;;;10.02;4.63;;;;;;;19.33;73.62;100711.81;5103202;28;20086;-57
2021/09/26 02:10:19;;;;;;;11.10;4.50;;;;;;;19.26;73.48;100705.84;5098356;28;20079;-66
2021/09/26 02:12:46;;;;;;;8.77;4.30;;;;;;;19.29;73.47;100717.31;5096972;28;20052;-63
2021/09/26 02:15:18;;;;;;;6.85;3.70;;;;;;;19.28;73.85;100718.50;5101407;28;20115;-61
2021/09/26 02:17:46;;;;;;;18.42;4.93;;;;;;;19.27;73.38;100710.31;5098975;28;21717;-69
2021/09/26 02:20:17;;;;;;;12.60;4.35;;;;;;;19.26;73.54;100722.81;5104367;28;20115;-72
2021/09/26 02:22:44;;;;;;;;;;;;;;;19.19;74.08;100720.50;5102509;28;20390;-70
2021/09/26 02:25:12;;;;;;;12.02;5.22;;;;;;;19.27;73.49;100718.81;5107942;28;20026;-64
2021/09/26 02:27:40;;;;;;;13.82;4.57;;;;;;;19.23;73.42;100729.97;5090440;28;20119;-67
2021/09/26 02:30:07;;;;;;;7.97;3.47;;;;;;;19.22;73.64;100721.84;5093284;28;20139;-62
2021/09/26 02:32:34;;;;;;;11.90;4.68;;;;;;;19.14;73.29;100726.31;5103902;28;20086;-61
2021/09/26 02:35:03;;;;;;;8.38;3.67;;;;;;;19.18;73.63;100725.34;5101424;28;20075;-62
2021/09/26 02:37:30;;;;;;;8.23;3.80;;;;;;;19.10;73.75;100736.66;5110985;28;20510;-60
2021/09/26 02:39:56;;;;;;;10.65;4.00;;;;;;;18.95;73.74;100729.50;5116344;28;20189;-63
2021/09/26 02:42:35;;;;;;;8.18;4.25;;;;;;;19.09;73.59;100741.47;5105796;28;20364;-61
2021/09/26 02:45:20;;;;;;;8.43;4.05;;;;;;;19.11;73.60;100738.31;5105539;28;20040;-60
2021/09/26 02:48:00;;;;;;;14.75;4.88;;;;;;;19.12;73.53;100740.00;5101042;28;20471;-59
2021/09/26 02:50:28;;;;;;;11.60;4.30;;;;;;;19.13;73.60;100750.97;5098632;28;20127;-59
2021/09/26 02:52:55;;;;;;;11.63;5.25;;;;;;;18.96;73.43;100727.50;5109563;28;20132;-61
2021/09/26 02:55:24;;;;;;;6.93;4.28;;;;;;;19.14;73.28;100752.66;5094883;28;20044;-62
2021/09/26 02:57:51;;;;;;;10.53;4.53;;;;;;;19.07;73.47;100751.47;5101871;28;20109;-62
2021/09/26 03:00:18;;;;;;;13.00;4.05;;;;;;;19.10;73.25;100765.78;5107258;28;20075;-61
2021/09/26 03:02:45;;;;;;;10.68;4.30;;;;;;;18.88;73.37;100734.81;5096684;28;20123;-60
2021/09/26 03:05:12;;;;;;;12.18;4.40;;;;;;;19.14;72.86;100760.28;5113069;28;20046;-61
2021/09/26 03:07:39;;;;;;;13.65;4.50;;;;;;;19.11;73.15;100767.47;5111461;27;20039;-61
2021/09/26 03:10:07;;;;;;;12.70;4.47;;;;;;;19.14;73.12;100766.81;5094572;28;20046;-61
2021/09/26 03:12:34;;;;;;;7.15;5.00;;;;;;;19.12;73.31;100756.97;5108781;28;20139;-61
2021/09/26 03:15:01;;;;;;;16.02;4.18;;;;;;;19.11;73.37;100750.47;5100021;28;20100;-60
2021/09/26 03:17:30;;;;;;;10.45;4.80;;;;;;;19.20;72.97;100772.28;5098816;28;20094;-60
2021/09/26 03:19:56;;;;;;;7.00;3.10;;;;;;;19.03;73.33;100753.28;5103329;28;20134;-60
2021/09/26 03:22:23;;;;;;;9.77;3.50;;;;;;;19.08;73.45;100767.31;5110470;28;20467;-63
2021/09/26 03:24:50;;;;;;;12.85;3.78;;;;;;;19.09;73.26;100764.13;5095093;28;20040;-61
2021/09/26 03:27:17;;;;;;;7.20;3.47;;;;;;;19.00;73.35;100759.63;5102824;28;20466;-62
2021/09/26 03:29:44;;;;;;;8.77;3.72;;;;;;;18.96;73.92;100753.78;5105685;28;20122;-61
2021/09/26 03:32:11;;;;;;;6.03;2.88;;;;;;;19.00;73.79;100756.78;5110536;28;20036;-60
2021/09/26 03:34:39;;;;;;;9.50;3.00;;;;;;;19.02;73.79;100752.47;5109832;28;20122;-60
2021/09/26 03:37:07;;;;;;;7.78;3.50;;;;;;;19.05;73.51;100751.81;5113339;28;20113;-59
2021/09/26 03:39:33;;;;;;;5.55;3.20;;;;;;;18.98;73.51;100748.66;5099085;28;20560;-59
2021/09/26 03:42:00;;;;;;;7.28;2.92;;;;;;;19.04;73.19;100749.28;5094402;28;20132;-59
2021/09/26 03:44:27;;;;;;;13.80;4.28;;;;;;;19.03;73.61;100744.81;5102675;28;20506;-58
2021/09/26 03:46:54;;;;;;;5.55;3.38;;;;;;;19.04;73.51;100761.47;5097201;28;20071;-59
2021/09/26 03:49:22;;;;;;;12.15;4.22;;;;;;;19.00;73.81;100754.78;5101647;28;20075;-58
2021/09/26 03:51:49;;;;;;;6.80;3.10;;;;;;;19.00;73.79;100760.44;5102010;28;20122;-59
2021/09/26 03:54:17;;;;;;;11.32;3.72;;;;;;;18.95;73.88;100757.81;5101766;28;20146;-59
2021/09/26 03:56:45;;;;;;;5.25;2.80;;;;;;;18.90;73.98;100749.47;5101903;28;20126;-59
2021/09/26 03:59:12;;;;;;;5.45;2.63;;;;;;;18.84;74.42;100754.47;5103387;28;20078;-58
2021/09/26 04:01:40;;;;;;;7.95;3.65;;;;;;;18.79;74.17;100748.13;5102418;28;20127;-58
2021/09/26 04:04:08;;;;;;;10.38;3.95;;;;;;;18.73;74.32;100743.78;5097275;28;20504;-59
2021/09/26 04:06:36;;;;;;;15.82;4.03;;;;;;;18.79;74.25;100756.63;5094185;28;20048;-58
2021/09/26 04:09:05;;;;;;;8.40;4.45;;;;;;;18.84;74.12;100750.81;5095447;28;20036;-60
2021/09/26 04:11:32;;;;;;;8.57;3.92;;;;;;;18.64;74.51;100730.44;5095705;27;20471;-61
2021/09/26 04:14:00;;;;;;;12.68;3.50;;;;;;;18.73;74.17;100733.28;5109259;28;20048;-61
2021/09/26 04:16:28;;;;;;;6.10;3.03;;;;;;;18.69;74.62;100750.06;5110284;27;20044;-59
2021/09/26 04:18:55;;;;;;;8.65;4.20;;;;;;;18.70;74.52;100751.75;5105811;27;20120;-59
2021/09/26 04:21:22;;;;;;;15.77;4.90;;;;;;;18.77;74.34;100754.13;5102448;27;20126;-60
2021/09/26 04:23:51;;;;;;;7.13;3.38;;;;;;;18.79;73.79;100757.44;5109911;28;20071;-60
2021/09/26 04:26:19;;;;;;;7.60;3.70;;;;;;;18.71;74.17;100755.41;5109319;28;20130;-61
2021/09/26 04:28:45;;;;;;;5.82;3.58;;;;;;;18.59;74.47;100747.56;5102050;28;20141;-60
2021/09/26 04:31:13;;;;;;;11.57;4.43;;;;;;;18.62;73.86;100761.03;5103432;28;20126;-61
2021/09/26 04:33:39;;;;;;;7.18;3.85;;;;;;;18.62;74.46;100763.03;5104252;28;20479;-58
2021/09/26 04:36:06;;;;;;;5.07;3.58;;;;;;;18.64;74.17;100763.56;5092515;28;20134;-57
2021/09/26 04:38:34;;;;;;;6.20;3.22;;;;;;;18.55;74.34;100760.69;5097555;28;20078;-58
2021/09/26 04:41:01;;;;;;;11.05;4.35;;;;;;;18.53;74.23;100753.69;5112754;28;20127;-60
2021/09/26 04:43:27;;;;;;;7.78;3.63;;;;;;;18.56;74.43;100770.00;5097414;28;20063;-61
2021/09/26 04:45:54;;;;;;;8.23;3.72;;;;;;;18.50;73.83;100769.34;5084225;28;20135;-61
2021/09/26 04:48:21;;;;;;;10.95;4.57;;;;;;;18.45;74.17;100761.00;5100311;28;20043;-61
2021/09/26 04:50:48;;;;;;;9.02;3.60;;;;;;;18.50;74.07;100752.38;5094246;28;20048;-61
2021/09/26 04:53:15;;;;;;;8.98;4.30;;;;;;;18.37;74.38;100747.69;5094233;28;20682;-61
2021/09/26 04:55:42;;;;;;;7.30;3.50;;;;;;;18.29;74.31;100740.84;5099623;28;20460;-59
2021/09/26 04:58:10;;;;;;;8.77;4.00;;;;;;;18.12;74.39;100724.66;5109792;28;20166;-59
2021/09/26 05:00:38;;;;;;;10.50;3.85;;;;;;;18.11;75.10;100734.28;5087543;28;20043;-58
2021/09/26 05:03:05;;;;;;;9.77;3.42;;;;;;;18.14;74.73;100735.63;5101268;28;20384;-58
2021/09/26 05:05:32;;;;;;;7.43;4.35;;;;;;;18.11;74.94;100734.28;5105638;28;20545;-58
2021/09/26 05:08:00;;;;;;;8.45;3.95;;;;;;;18.18;74.55;100745.13;5095033;28;20044;-59
2021/09/26 05:10:27;;;;;;;6.05;4.15;;;;;;;18.20;74.65;100754.13;5095714;28;20051;-58
2021/09/26 05:12:54;;;;;;;7.72;4.35;;;;;;;18.20;74.14;100757.78;5099223;28;20091;-59
2021/09/26 05:15:21;;;;;;;8.75;4.20;;;;;;;18.32;73.82;100765.63;5093534;28;20512;-60
2021/09/26 05:17:48;;;;;;;7.63;3.30;;;;;;;18.33;73.74;100769.31;5102589;28;20051;-61
2021/09/26 05:20:15;;;;;;;5.25;2.97;;;;;;;18.40;73.48;100775.31;5104633;28;20519;-58
2021/09/26 05:22:42;;;;;;;8.45;3.85;;;;;;;18.34;73.39;100742.69;5101668;28;20078;-58
2021/09/26 05:25:09;;;;;;;8.70;4.03;;;;;;;18.43;73.16;100757.69;5109800;28;20043;-59
2021/09/26 05:27:36;;;;;;;5.97;3.00;;;;;;;18.26;73.19;100747.16;5101773;28;20071;-61
2021/09/26 05:30:05;;;;;;;10.55;3.50;;;;;;;18.27;73.46;100748.81;5095729;28;20555;-58
2021/09/26 05:32:32;;;;;;;9.02;3.97;;;;;;;18.35;73.10;100772.63;5103567;28;20105;-60
2021/09/26 05:34:59;;;;;;;12.13;4.25;;;;;;;18.32;73.34;100776.09;5102666;28;20043;-60
2021/09/26 05:37:26;;;;;;;11.02;3.75;;;;;;;18.33;73.48;100777.78;5094953;28;20119;-59
2021/09/26 05:39:52;;;;;;;9.25;3.90;;;;;;;18.30;73.56;100784.91;5107702;28;20127;-59
2021/09/26 05:42:19;;;;;;;8.93;4.90;;;;;;;18.19;73.69;100760.94;5110781;28;20126;-60
2021/09/26 05:44:46;;;;;;;8.13;4.20;;;;;;;18.17;73.62;100778.22;5094600;28;20313;-58
2021/09/26 05:47:14;;;;;;;9.77;4.50;;;;;;;18.16;73.64;100787.84;5105540;28;20040;-58
2021/09/26 05:49:42;;;;;;;10.20;3.97;;;;;;;18.21;73.32;100776.41;5096007;28;20127;-58
2021/09/26 05:52:10;;;;;;;11.05;4.45;;;;;;;18.22;73.40;100772.44;5111737;28;20143;-59
2021/09/26 05:54:38;;;;;;;6.53;3.67;;;;;;;18.20;73.38;100771.91;5106210;28;20075;-60
2021/09/26 05:57:06;;;;;;;9.48;5.28;;;;;;;18.17;73.49;100778.22;5106942;28;20072;-58
2021/09/26 05:59:37;;;;;;;9.43;4.28;;;;;;;18.12;73.66;100761.41;5098991;28;20072;-57
2021/09/26 06:02:12;;;;;;;7.38;3.85;;;;;;;17.91;73.71;100749.00;5105811;28;20722;-60
2021/09/26 06:04:40;;;;;;;7.10;3.92;;;;;;;17.98;73.90;100770.00;5110642;28;20047;-59
2021/09/26 06:07:07;;;;;;;4.72;3.40;;;;;;;17.64;73.47;100725.44;5097681;28;20127;-59
2021/09/26 06:09:34;;;;;;;8.23;4.07;;;;;;;17.83;73.67;100761.09;5092913;28;20126;-62
2021/09/26 06:12:01;;;;;;;9.50;3.17;;;;;;;17.85;73.44;100768.09;5099275;28;20463;-67
2021/09/26 06:14:27;;;;;;;13.75;3.97;;;;;;;17.84;73.40;100774.06;5105244;28;20135;-59
2021/09/26 06:16:54;;;;;;;7.97;3.85;;;;;;;17.75;73.24;100769.19;5104704;28;20126;-59
2021/09/26 06:19:21;;;;;;;7.45;3.63;;;;;;;17.86;72.71;100778.22;5102854;27;20071;-60
2021/09/26 06:21:48;;;;;;;5.05;3.00;;;;;;;17.90;72.58;100789.72;5107277;28;20468;-59
2021/09/26 06:24:15;;;;;;;5.60;2.92;;;;;;;17.95;72.42;100793.25;5102315;28;20470;-57
2021/09/26 06:26:42;;;;;;;8.77;3.42;;;;;;;18.00;72.27;100793.09;5102907;28;20067;-53
2021/09/26 06:29:09;;;;;;;6.53;3.38;;;;;;;18.08;72.01;100801.94;5097309;28;20441;-59
2021/09/26 06:31:36;;;;;;;7.53;3.70;;;;;;;18.14;72.08;100818.44;5105356;28;20068;-60
2021/09/26 06:34:04;;;;;;;7.05;3.45;;;;;;;18.17;72.30;100800.81;5099454;28;20074;-59
2021/09/26 06:36:31;;;;;;;13.82;6.15;;;;;;;18.37;71.95;100815.53;5104135;28;20471;-59
2021/09/26 06:38:58;;;;;;;11.90;3.78;;;;;;;18.48;71.95;100808.44;5112708;28;20071;-57
2021/09/26 06:41:25;;;;;;;5.70;3.28;;;;;;;18.49;71.56;100795.94;5088989;28;20555;-58
2021/09/26 06:43:52;;;;;;;5.10;2.88;;;;;;;18.56;71.43;100812.44;5104729;28;20642;-59
2021/09/26 06:46:19;;;;;;;8.48;3.53;;;;;;;18.43;71.81;100791.63;5079170;28;20129;-59
2021/09/26 06:48:46;;;;;;;8.02;3.25;;;;;;;18.43;71.68;100819.91;5099993;27;20209;-60
2021/09/26 06:51:13;;;;;;;5.40;2.72;;;;;;;18.31;71.42;100805.53;5104505;28;20138;-60
2021/09/26 06:53:40;;;;;;;6.75;3.40;;;;;;;18.32;71.55;100821.34;5095468;28;20135;-59
2021/09/26 06:56:07;;;;;;;7.93;2.80;;;;;;;18.28;71.54;100828.81;5094433;28;20127;-59
2021/09/26 06:58:34;;;;;;;6.07;3.08;;;;;;;18.33;71.40;100820.19;5100129;28;20071;-58
2021/09/26 07:01:01;;;;;;;5.85;2.53;;;;;;;18.40;71.03;100831.88;5107398;28;20127;-59
2021/09/26 07:03:28;;;;;;;14.10;2.83;;;;;;;18.23;71.15;100815.66;5100320;28;20052;-60
2021/09/26 07:05:55;;;;;;;7.30;3.05;;;;;;;18.24;70.92;100823.81;5098055;28;20131;-60
2021/09/26 07:08:22;;;;;;;5.50;2.85;;;;;;;18.04;71.00;100815.88;5108792;28;20093;-61
2021/09/26 07:10:49;;;;;;;5.30;2.45;;;;;;;18.07;70.82;100789.81;5100175;28;20091;-60
2021/09/26 07:13:16;;;;;;;4.78;2.50;;;;;;;18.54;70.28;100824.09;5102144;27;20201;-60
2021/09/26 07:15:43;;;;;;;7.13;2.70;;;;;;;18.50;70.26;100831.56;5114285;27;20158;-59
2021/09/26 07:18:10;;;;;;;6.13;2.45;;;;;;;18.58;70.57;100825.09;5115110;28;20136;-59
2021/09/26 07:20:41;;;;;;;3.85;2.40;;;;;;;18.75;70.01;100821.50;5107936;27;20048;-59
2021/09/26 07:23:08;;;;;;;4.82;2.38;;;;;;;18.91;69.11;100807.75;5104270;28;20066;-60
2021/09/26 07:25:36;;;;;;;3.75;1.85;;;;;;;19.02;69.14;100823.22;5112955;28;20122;-60
2021/09/26 07:28:04;;;;;;;5.60;2.40;;;;;;;19.10;69.02;100815.91;5112830;28;20134;-60
2021/09/26 07:30:32;;;;;;;3.80;2.40;;;;;;;19.20;68.63;100797.75;5105991;28;20097;-60
2021/09/26 07:32:59;;;;;;;2.90;2.03;;;;;;;19.46;68.05;100824.09;5098687;28;20035;-60
2021/09/26 07:35:26;;;;;;;3.47;1.73;;;;;;;19.81;67.27;100829.72;5111184;28;20514;-59
2021/09/26 07:37:53;;;;;;;4.43;2.15;;;;;;;19.85;66.94;100820.22;5096929;28;20555;-59
2021/09/26 07:40:20;;;;;;;4.22;2.05;;;;;;;20.25;66.31;100831.28;5104048;28;20462;-59
2021/09/26 07:42:46;;;;;;;6.63;2.80;;;;;;;20.74;65.31;100845.91;5095749;28;20547;-59
2021/09/26 07:45:13;;;;;;;6.88;2.50;;;;;;;20.73;64.40;100857.63;5079076;28;20131;-59
2021/09/26 07:47:42;;;;;;;6.38;3.00;;;;;;;20.71;64.58;100840.09;5097720;28;20057;-59
2021/09/26 07:50:10;;;;;;;5.68;2.50;;;;;;;20.53;64.28;100845.88;5107470;28;20126;-59
2021/09/26 07:52:37;;;;;;;5.55;2.30;;;;;;;20.43;64.20;100851.88;5097068;28;20044;-59
2021/09/26 07:55:06;;;;;;;2.72;2.17;;;;;;;20.33;64.08;100840.91;5103430;28;20503;-59
2021/09/26 07:57:32;;;;;;;3.03;2.03;;;;;;;20.39;64.21;100833.88;5101332;27;20052;-59
2021/09/26 08:00:00;;;;;;;5.38;2.20;;;;;;;20.57;63.70;100858.19;5093019;28;20074;-59
2021/09/26 08:02:27;;;;;;;7.68;2.70;;;;;;;20.87;63.34;100869.56;5099220;28;20086;-59
2021/09/26 08:04:54;;;;;;;6.05;2.65;;;;;;;21.39;62.74;100874.09;5094827;28;20055;-60
2021/09/26 08:07:21;;;;;;;6.55;2.30;;;;;;;21.80;62.19;100863.88;5106429;28;20485;-63
2021/09/26 08:09:47;;;;;;;3.72;2.38;;;;;;;22.19;61.20;100856.81;5093902;28;20083;-63
2021/09/26 08:12:14;;;;;;;5.22;2.40;;;;;;;22.38;60.70;100879.84;5096649;28;20075;-60
2021/09/26 08:14:41;;;;;;;11.40;2.90;;;;;;;22.30;60.03;100885.66;5110201;28;20147;-61
2021/09/26 08:17:08;;;;;;;2.83;2.03;;;;;;;22.10;59.20;100887.34;5110396;27;20074;-57
2021/09/26 08:19:36;;;;;;;4.40;1.98;;;;;;;22.14;59.39;100889.13;5104665;28;20044;-60
2021/09/26 08:22:06;;;;;;;3.75;2.25;;;;;;;22.57;59.38;100875.63;5120666;27;20137;-60
2021/09/26 08:24:35;;;;;;;5.15;2.33;;;;;;;22.90;58.49;100890.56;5110937;27;20396;-61
2021/09/26 08:27:03;;;;;;;4.88;2.10;;;;;;;23.20;58.20;100898.88;5096512;28;20083;-60
2021/09/26 08:29:31;;;;;;;7.30;2.03;;;;;;;23.69;57.25;100898.78;5097371;28;20138;-58
2021/09/26 08:31:58;;;;;;;10.50;2.10;;;;;;;24.50;56.03;100896.66;5099042;28;20371;-58
2021/09/26 08:34:25;;;;;;;4.53;2.45;;;;;;;24.83;54.60;100892.63;5097823;28;20052;-58
2021/09/26 08:36:52;;;;;;;3.92;1.92;;;;;;;24.64;54.94;100884.78;5097400;28;20040;-58
2021/09/26 08:39:19;;;;;;;3.42;1.85;;;;;;;24.82;54.18;100899.53;5107071;28;20048;-59
2021/09/26 08:41:52;;;;;;;4.78;2.40;;;;;;;24.96;53.57;100899.06;5093778;28;20127;-59
2021/09/26 08:44:26;;;;;;;3.13;1.92;;;;;;;24.88;53.62;100898.03;5100572;28;20130;-59
2021/09/26 08:46:57;;;;;;;3.55;2.10;;;;;;;24.87;53.21;100898.41;5095301;28;20590;-59
2021/09/26 08:49:27;;;;;;;6.07;2.10;;;;;;;24.88;53.28;100882.91;5109511;28;20097;-58
2021/09/26 08:51:54;;;;;;;4.05;2.13;;;;;;;25.25;52.70;100912.84;5111140;28;20086;-58
2021/09/26 08:54:21;;;;;;;5.22;2.42;;;;;;;25.51;51.88;100914.28;5093144;28;20134;-59
2021/09/26 08:56:48;;;;;;;3.47;2.20;;;;;;;25.87;51.50;100913.06;5093772;28;20105;-59
2021/09/26 08:59:15;;;;;;;4.15;2.00;;;;;;;25.87;51.11;100923.66;5112840;28;20118;-59
2021/09/26 09:01:42;;;;;;;3.10;1.98;;;;;;;25.93;51.45;100919.31;5111026;28;20079;-59
2021/09/26 09:04:09;;;;;;;4.93;2.10;;;;;;;25.83;51.32;100937.06;5097442;28;20047;-58
2021/09/26 09:06:38;;;;;;;3.72;1.92;;;;;;;25.72;51.02;100943.34;5104293;28;20494;-58
2021/09/26 09:09:10;;;;;;;5.20;2.13;;;;;;;25.13;52.10;100933.00;5093503;28;20166;-58
2021/09/26 09:11:37;;;;;;;7.28;2.47;;;;;;;24.83;52.32;100927.72;5092514;28;20082;-60
2021/09/26 09:14:04;;;;;;;5.95;2.50;;;;;;;24.36;52.21;100919.91;5099149;28;20590;-59
2021/09/26 09:16:33;;;;;;;8.40;2.42;;;;;;;23.98;53.04;100919.63;5108940;27;20040;-58
2021/09/26 09:19:01;;;;;;;4.88;2.40;;;;;;;23.40;53.46;100900.75;5097854;28;20076;-58
2021/09/26 09:21:28;;;;;;;4.45;2.30;;;;;;;23.31;54.59;100945.63;5092528;28;20127;-59
2021/09/26 09:24:15;;;;;;;5.20;2.30;;;;;;;23.09;55.23;100949.00;5097512;28;20554;-58
2021/09/26 09:26:47;;;;;;;10.25;2.65;;;;;;;23.17;55.24;100953.72;5111755;28;20074;-58
2021/09/26 09:29:14;;;;;;;5.75;2.13;;;;;;;23.11;55.58;100952.28;5111739;28;20123;-58
2021/09/26 09:31:55;;;;;;;4.50;2.20;;;;;;;22.85;55.82;100944.91;5111358;28;20135;-58
2021/09/26 09:34:37;;;;;;;5.45;2.17;;;;;;;22.77;56.30;100957.25;5106605;28;20126;-59
2021/09/26 09:37:18;;;;;;;6.55;2.15;;;;;;;22.74;56.51;100954.28;5112613;28;20459;-59
2021/09/26 09:40:15;;;;;;;4.45;2.20;;;;;;;22.57;57.08;100959.00;5112919;28;20122;-58
2021/09/26 09:42:48;;;;;;;3.67;2.15;;;;;;;22.83;57.36;100954.97;5092753;28;20097;-57
2021/09/26 09:45:25;;;;;;;6.97;4.40;;;;;;;23.15;56.92;100951.25;5099490;28;20126;-59
2021/09/26 09:48:08;;;;;;;7.88;2.53;;;;;;;23.68;56.42;100957.03;5101372;28;20040;-58
2021/09/26 09:50:41;;;;;;;4.82;2.10;;;;;;;24.03;55.84;100953.59;5109731;28;20070;-59
2021/09/26 09:53:19;;;;;;;9.88;2.78;;;;;;;24.06;56.10;100952.88;5106322;28;20048;-59
2021/09/26 09:56:13;;;;;;;7.22;2.33;;;;;;;24.45;55.34;100953.22;5104811;28;20086;-59
2021/09/26 09:58:43;;;;;;;5.13;2.05;;;;;;;24.75;54.79;100963.00;5112574;28;20071;-59
2021/09/26 10:01:13;;;;;;;5.53;2.28;;;;;;;24.89;54.36;100958.84;5089650;28;20082;-59
2021/09/26 10:03:41;;;;;;;4.90;2.25;;;;;;;25.21;54.22;100974.81;5102874;28;20048;-59
2021/09/26 10:06:24;;;;;;;5.55;1.90;;;;;;;25.00;53.95;100963.66;5092063;28;20137;-59
2021/09/26 10:08:57;;;;;;;4.25;1.80;;;;;;;24.98;53.47;100960.31;5093910;28;20055;-58
2021/09/26 10:11:25;;;;;;;3.45;1.80;;;;;;;24.87;53.10;100944.94;5095335;28;20054;-58
2021/09/26 10:13:53;;;;;;;6.70;2.13;;;;;;;24.71;53.46;100949.81;5091901;28;20097;-58
2021/09/26 10:16:21;;;;;;;7.25;1.88;;;;;;;24.61;53.27;100953.22;5096485;28;20127;-59
2021/09/26 10:18:49;;;;;;;3.50;1.60;;;;;;;24.97;53.60;100958.69;5109054;28;20059;-58
2021/09/26 10:21:16;;;;;;;4.93;1.50;;;;;;;25.58;52.61;100967.97;5112945;28;20067;-58
2021/09/26 10:23:44;;;;;;;8.55;2.60;;;;;;;25.73;52.00;100964.19;5112152;28;20147;-58
2021/09/26 10:26:15;;;;;;;3.15;1.45;;;;;;;25.96;51.38;100964.34;5103438;28;20131;-58
2021/09/26 10:28:44;;;;;;;3.95;1.65;;;;;;;26.17;51.03;100949.66;5095434;28;20154;-59
2021/09/26 10:31:11;;;;;;;3.70;2.27;;;;;;;26.76;50.20;100962.69;5112315;28;20075;-58
2021/09/26 10:33:41;;;;;;;3.53;1.38;;;;;;;27.34;49.54;100973.13;5098618;28;20292;-58
2021/09/26 10:36:09;;;;;;;3.58;2.17;;;;;;;27.29;48.47;100973.47;5096908;28;20119;-58
2021/09/26 10:38:38;;;;;;;3.92;2.00;;;;;;;26.86;47.87;100949.78;5104474;28;20557;-58
2021/09/26 10:41:08;;;;;;;3.65;1.80;;;;;;;26.57;48.50;100972.19;5101581;28;20076;-58
2021/09/26 10:43:35;;;;;;;5.05;2.33;;;;;;;26.37;49.10;100973.38;5092143;28;20048;-58
2021/09/26 10:46:20;;;;;;;4.63;1.88;;;;;;;25.73;49.31;100958.47;5091652;28;20131;-58
2021/09/26 10:48:56;;;;;;;3.90;2.00;;;;;;;25.69;49.78;100975.56;5094370;28;20070;-59
2021/09/26 10:51:53;;;;;;;7.53;1.50;;;;;;;25.95;49.61;100979.88;5093760;28;20048;-58
2021/09/26 10:54:30;;;;;;;5.25;2.03;;;;;;;25.88;49.75;100979.69;5091276;28;20048;-59
2021/09/26 10:57:03;;;;;;;5.30;2.20;;;;;;;25.82;50.17;100978.34;5094273;28;20082;-59
2021/09/26 10:59:39;;;;;;;2.67;1.42;;;;;;;26.00;50.00;100966.06;5095120;28;20143;-59
2021/09/26 11:02:21;;;;;;;2.70;1.38;;;;;;;25.87;50.05;100972.31;5095439;28;20122;-58
2021/09/26 11:04:59;;;;;;;3.60;1.35;;;;;;;25.66;50.27;100973.44;5103232;28;20507;-58
2021/09/26 11:07:31;;;;;;;4.50;1.83;;;;;;;25.59;50.53;100979.00;5109955;28;20056;-58
2021/09/26 11:10:00;;;;;;;4.20;1.10;;;;;;;25.82;50.33;100984.06;5115736;28;20071;-58
2021/09/26 11:12:35;;;;;;;3.10;1.90;;;;;;;26.14;50.01;100970.44;5115725;28;20476;-58
2021/09/26 11:15:16;;;;;;;9.52;2.03;;;;;;;26.46;49.64;100971.09;5113257;28;20079;-58
2021/09/26 11:17:58;;;;;;;3.75;1.95;;;;;;;26.65;49.32;100971.09;5097810;28;20452;-58
2021/09/26 11:20:24;;;;;;;12.80;2.58;;;;;;;26.55;49.24;100968.84;5106206;28;20127;-58
2021/09/26 11:23:04;;;;;;;4.43;1.67;;;;;;;26.40;49.53;100955.44;5094938;28;20055;-58
2021/09/26 11:25:55;;;;;;;3.35;1.75;;;;;;;26.69;49.52;100957.66;5094524;28;20090;-58
2021/09/26 11:28:33;;;;;;;6.03;1.42;;;;;;;27.49;48.38;100943.47;5095008;28;20106;-59
2021/09/26 11:31:02;;;;;;;3.90;2.00;;;;;;;28.38;46.48;100929.50;5107150;28;20067;-59
2021/09/26 11:33:54;;;;;;;4.18;1.60;;;;;;;28.34;46.28;100955.31;5108543;28;20108;-59
2021/09/26 11:36:24;;;;;;;2.80;1.75;;;;;;;27.97;46.31;100949.50;5103184;28;20535;-59